createdAt,value
2019-03-12T00:00:20.424Z,99.90
2019-03-12T00:02:49.103Z,99.90
2019-03-12T00:05:17.715Z,99.90
2019-03-12T00:07:46.491Z,99.90
2019-03-12T00:10:14.961Z,99.90
2019-03-12T00:12:43.446Z,99.90
2019-03-12T00:15:12.711Z,99.90
2019-03-12T00:17:41.308Z,99.90
2019-03-12T00:20:10.231Z,99.90
2019-03-12T00:22:38.735Z,99.90
2019-03-12T00:25:08.191Z,99.90
2019-03-12T00:27:36.824Z,99.90
2019-03-12T00:30:10.529Z,99.90
2019-03-12T00:32:39.207Z,99.90
2019-03-12T00:35:08.594Z,99.90
2019-03-12T00:37:37.299Z,99.90
2019-03-12T00:40:08.168Z,99.90
2019-03-12T00:42:36.807Z,99.90
2019-03-12T00:45:08.271Z,99.90
2019-03-12T00:47:37.045Z,99.90
2019-03-12T00:50:07.685Z,99.90
2019-03-12T00:52:36.433Z,99.90
2019-03-12T00:55:07.801Z,99.90
2019-03-12T00:57:36.602Z,99.90
2019-03-12T01:00:14.068Z,99.90
2019-03-12T01:02:42.812Z,99.90
2019-03-12T01:05:11.723Z,99.90
2019-03-12T01:07:40.624Z,99.90
2019-03-12T01:10:14.049Z,99.90
2019-03-12T01:12:42.746Z,99.90
2019-03-12T01:15:13.086Z,99.90
2019-03-12T01:17:41.869Z,99.90
2019-03-12T01:20:16.441Z,99.90
2019-03-12T01:22:44.850Z,99.90
2019-03-12T01:25:14.620Z,99.90
2019-03-12T01:27:43.270Z,99.90
2019-03-12T01:30:18.185Z,99.90
2019-03-12T01:32:46.795Z,99.90
2019-03-12T01:35:15.570Z,99.90
2019-03-12T01:37:44.091Z,99.90
2019-03-12T01:40:14.156Z,99.90
2019-03-12T01:42:42.739Z,99.90
2019-03-12T01:45:15.272Z,99.90
2019-03-12T01:47:44.112Z,99.90
2019-03-12T01:50:15.937Z,99.90
2019-03-12T01:52:44.371Z,99.90
2019-03-12T01:55:14.481Z,99.90
2019-03-12T01:57:42.907Z,99.90
2019-03-12T02:00:39.407Z,99.90
2019-03-12T02:03:19.600Z,99.90
2019-03-12T02:05:59.850Z,99.90
2019-03-12T02:08:40.799Z,99.90
2019-03-12T02:11:21.512Z,99.90
2019-03-12T02:14:02.292Z,99.90
2019-03-12T02:16:43.125Z,99.90
2019-03-12T02:19:24.039Z,99.90
2019-03-12T02:22:05.086Z,99.90
2019-03-12T02:24:52.508Z,99.90
2019-03-12T02:27:28.862Z,99.90
2019-03-12T02:29:57.296Z,99.90
2019-03-12T02:32:26.109Z,99.90
2019-03-12T02:34:54.846Z,99.90
2019-03-12T02:37:23.618Z,99.90
2019-03-12T02:39:52.475Z,99.90
2019-03-12T02:42:20.909Z,99.90
2019-03-12T02:44:49.506Z,99.90
2019-03-12T02:47:18.133Z,99.90
2019-03-12T02:49:47.133Z,99.90
2019-03-12T02:52:15.630Z,99.90
2019-03-12T02:54:44.965Z,99.90
2019-03-12T02:57:13.714Z,99.90
2019-03-12T03:00:01.517Z,99.90
2019-03-12T03:02:42.201Z,99.90
2019-03-12T03:05:22.825Z,99.90
2019-03-12T03:08:07.825Z,99.90
2019-03-12T03:10:48.441Z,99.90
2019-03-12T03:13:29.293Z,99.90
2019-03-12T03:16:10.457Z,99.90
2019-03-12T03:18:51.451Z,99.90
2019-03-12T03:21:32.649Z,99.90
2019-03-12T03:24:13.809Z,99.90
2019-03-12T03:26:54.590Z,99.90
2019-03-12T03:29:23.017Z,99.90
2019-03-12T03:32:10.987Z,99.90
2019-03-12T03:35:00.752Z,99.90
2019-03-12T03:37:49.778Z,99.90
2019-03-12T03:40:37.546Z,99.90
2019-03-12T03:46:12.871Z,99.90
2019-03-12T03:51:54.407Z,99.90
2019-03-12T03:54:42.265Z,99.90
2019-03-12T03:57:30.150Z,99.90
2019-03-12T04:00:37.259Z,99.90
2019-03-12T04:03:25.048Z,99.90
2019-03-12T04:06:12.802Z,99.90
2019-03-12T04:09:00.604Z,99.90
2019-03-12T04:11:48.366Z,99.90
2019-03-12T04:14:36.192Z,99.90
2019-03-12T04:17:23.989Z,99.90
2019-03-12T04:19:52.420Z,99.90
2019-03-12T04:22:40.204Z,99.90
2019-03-12T04:25:28.009Z,99.90
2019-03-12T04:27:56.545Z,99.90
2019-03-12T04:30:44.364Z,99.90
2019-03-12T04:33:51.465Z,99.90
2019-03-12T04:36:39.399Z,99.90
2019-03-12T04:39:27.179Z,99.90
2019-03-12T04:42:14.944Z,99.90
2019-03-12T04:45:02.790Z,99.90
2019-03-12T04:47:50.594Z,99.90
2019-03-12T04:50:38.439Z,99.90
2019-03-12T04:53:26.223Z,99.90
2019-03-12T04:56:13.985Z,99.90
2019-03-12T04:59:01.769Z,99.90
2019-03-12T05:01:42.535Z,99.90
2019-03-12T05:04:23.499Z,99.90
2019-03-12T05:07:04.477Z,99.90
2019-03-12T05:09:45.152Z,99.90
2019-03-12T05:12:25.880Z,99.90
2019-03-12T05:15:07.147Z,99.90
2019-03-12T05:17:48.206Z,99.90
2019-03-12T05:20:28.999Z,99.90
2019-03-12T05:23:10.095Z,99.90
2019-03-12T05:25:50.993Z,99.90
2019-03-12T05:28:19.641Z,99.90
2019-03-12T05:30:48.305Z,99.90
2019-03-12T05:33:16.809Z,99.90
2019-03-12T05:35:45.247Z,99.90
2019-03-12T05:38:13.778Z,99.90
2019-03-12T05:40:42.769Z,99.90
2019-03-12T05:43:11.351Z,99.90
2019-03-12T05:45:40.525Z,99.90
2019-03-12T05:48:09.424Z,99.90
2019-03-12T05:50:38.402Z,99.90
2019-03-12T05:53:14.729Z,99.90
2019-03-12T05:55:43.409Z,99.90
2019-03-12T05:58:12.426Z,99.90
2019-03-12T06:00:42.440Z,99.90
2019-03-12T06:03:10.883Z,99.90
2019-03-12T06:05:39.402Z,99.90
2019-03-12T06:08:07.957Z,99.90
2019-03-12T06:10:36.678Z,99.90
2019-03-12T06:13:05.195Z,99.90
2019-03-12T06:15:33.794Z,99.90
2019-03-12T06:18:02.589Z,99.90
2019-03-12T06:20:31.164Z,99.90
2019-03-12T06:22:59.912Z,99.90
2019-03-12T06:25:28.588Z,99.90
2019-03-12T06:27:57.137Z,99.90
2019-03-12T06:30:26.369Z,99.90
2019-03-12T06:32:56.679Z,99.90
2019-03-12T06:35:29.493Z,99.90
2019-03-12T06:38:08.889Z,99.90
2019-03-12T06:40:42.102Z,99.90
2019-03-12T06:43:18.285Z,99.90
2019-03-12T06:45:48.431Z,99.90
2019-03-12T06:48:21.294Z,99.90
2019-03-12T06:50:51.416Z,99.90
2019-03-12T06:53:30.461Z,99.90
2019-03-12T06:56:03.747Z,99.90
2019-03-12T06:58:42.855Z,99.90
2019-03-12T07:01:18.696Z,99.90
2019-03-12T07:03:51.679Z,99.90
2019-03-12T07:06:38.565Z,99.90
2019-03-12T07:09:18.732Z,99.90
2019-03-12T07:11:54.882Z,99.90
2019-03-12T07:14:24.946Z,99.90
2019-03-12T07:16:57.385Z,99.90
2019-03-12T07:19:45.011Z,99.90
2019-03-12T07:22:15.200Z,99.90
2019-03-12T07:25:01.579Z,99.90
2019-03-12T07:27:37.698Z,99.90
2019-03-12T07:30:27.839Z,99.90
2019-03-12T07:33:01.018Z,99.90
2019-03-12T07:35:49.067Z,99.90
2019-03-12T07:38:24.867Z,99.90
2019-03-12T07:41:24.658Z,99.90
2019-03-12T07:44:00.861Z,99.90
2019-03-12T07:46:36.757Z,99.90
2019-03-12T07:49:06.837Z,99.90
2019-03-12T07:51:53.252Z,99.90
2019-03-12T07:54:32.321Z,99.90
2019-03-12T07:57:08.339Z,99.90
2019-03-12T07:59:54.556Z,99.90
2019-03-12T08:02:27.383Z,99.90
2019-03-12T08:05:00.509Z,99.90
2019-03-12T08:07:36.185Z,99.90
2019-03-12T08:10:21.448Z,99.90
2019-03-12T08:12:57.247Z,99.90
2019-03-12T08:15:39.355Z,99.90
2019-03-12T08:18:18.356Z,99.90
2019-03-12T08:20:57.386Z,99.90
2019-03-12T08:23:36.619Z,99.90
2019-03-12T08:38:39.628Z,99.90
2019-03-12T08:41:46.603Z,99.90
2019-03-12T08:44:53.569Z,99.90
2019-03-12T08:48:00.532Z,99.90
2019-03-12T08:51:07.506Z,99.90
2019-03-12T08:54:14.474Z,99.90
2019-03-12T08:57:21.471Z,99.90
2019-03-12T09:00:30.005Z,99.90
2019-03-12T09:03:12.062Z,99.90
2019-03-12T09:06:12.423Z,99.90
2019-03-12T09:09:11.830Z,99.90
2019-03-12T09:11:56.533Z,99.90
2019-03-12T09:14:55.986Z,99.90
2019-03-12T09:17:55.517Z,99.90
2019-03-12T09:20:28.231Z,99.90
2019-03-12T09:23:01.025Z,99.90
2019-03-12T09:25:36.889Z,99.90
2019-03-12T09:28:23.232Z,99.90
2019-03-12T09:30:59.320Z,99.90
2019-03-12T09:33:41.419Z,99.90
2019-03-12T09:36:17.416Z,99.90
2019-03-12T09:38:47.503Z,99.90
2019-03-12T09:41:23.496Z,99.90
2019-03-12T09:47:18.148Z,99.90
2019-03-12T09:50:26.636Z,99.90
2019-03-12T09:56:28.889Z,99.90
2019-03-12T09:59:35.912Z,99.90
2019-03-12T10:02:18.467Z,99.90
2019-03-12T10:05:18.602Z,99.90
2019-03-12T10:08:03.625Z,99.90
2019-03-12T10:16:48.592Z,99.90
2019-03-12T10:19:31.445Z,99.90
2019-03-12T10:25:15.494Z,99.90
2019-03-12T10:28:00.979Z,99.90
2019-03-12T10:30:54.773Z,99.90
2019-03-12T10:33:42.924Z,99.90
2019-03-12T10:36:25.297Z,99.90
2019-03-12T10:39:37.967Z,99.90
2019-03-12T10:42:20.379Z,99.90
2019-03-12T10:45:06.706Z,99.90
2019-03-12T10:47:39.665Z,99.90
2019-03-12T10:50:09.455Z,99.90
2019-03-12T10:52:37.876Z,99.90
2019-03-12T10:55:12.895Z,99.90
2019-03-12T10:57:37.766Z,99.90
2019-03-12T11:00:17.336Z,99.90
2019-03-12T11:02:45.865Z,99.90
2019-03-12T11:05:14.379Z,99.90
2019-03-12T11:07:42.794Z,99.90
2019-03-12T11:10:15.821Z,99.90
2019-03-12T11:12:44.310Z,99.70
2019-03-12T11:15:13.686Z,99.90
2019-03-12T11:17:49.491Z,99.90
2019-03-12T11:20:23.668Z,99.90
2019-03-12T11:22:52.164Z,99.40
2019-03-12T11:25:27.048Z,99.90
2019-03-12T11:27:50.845Z,99.90
2019-03-12T11:30:20.125Z,99.90
2019-03-12T11:32:48.560Z,99.90
2019-03-12T11:35:17.033Z,99.90
2019-03-12T11:37:45.463Z,99.90
2019-03-12T11:40:22.316Z,98.80
2019-03-12T11:42:50.884Z,99.30
2019-03-12T11:45:20.757Z,97.60
2019-03-12T11:47:49.932Z,99.30
2019-03-12T11:50:24.641Z,98.80
2019-03-12T11:52:56.934Z,99.40
2019-03-12T11:55:23.445Z,97.90
2019-03-12T11:57:52.053Z,98.10
2019-03-12T12:00:29.223Z,97.70
2019-03-12T12:03:00.427Z,97.50
2019-03-12T12:05:28.463Z,97.70
2019-03-12T12:07:57.130Z,96.40
2019-03-12T12:10:25.951Z,94.70
2019-03-12T12:12:54.479Z,97.20
2019-03-12T12:15:22.988Z,95.20
2019-03-12T12:17:51.420Z,94.70
2019-03-12T12:20:29.473Z,94.70
2019-03-12T12:22:50.336Z,93.40
2019-03-12T12:25:19.829Z,95.00
2019-03-12T12:27:48.728Z,94.80
2019-03-12T12:30:19.203Z,95.80
2019-03-12T12:32:47.701Z,95.00
2019-03-12T12:35:16.119Z,94.60
2019-03-12T12:37:44.594Z,96.20
2019-03-12T12:40:20.720Z,96.10
2019-03-12T12:42:49.232Z,97.10
2019-03-12T12:45:31.894Z,95.10
2019-03-12T12:48:00.367Z,96.40
2019-03-12T12:50:29.003Z,95.40
2019-03-12T12:52:57.538Z,95.80
2019-03-12T12:55:25.981Z,96.20
2019-03-12T12:57:54.553Z,95.80
2019-03-12T13:00:25.088Z,96.80
2019-03-12T13:02:53.679Z,95.30
2019-03-12T13:05:22.257Z,94.40
2019-03-12T13:07:50.728Z,94.70
2019-03-12T13:10:24.589Z,94.80
2019-03-12T13:12:53.223Z,93.40
2019-03-12T13:15:22.064Z,93.50
2019-03-12T13:17:50.571Z,92.80
2019-03-12T13:20:19.193Z,93.90
2019-03-12T13:22:48.027Z,93.10
2019-03-12T13:25:18.766Z,92.30
2019-03-12T13:27:47.527Z,91.50
2019-03-12T13:30:20.587Z,92.80
2019-03-12T13:32:49.275Z,91.60
2019-03-12T13:35:18.741Z,91.90
2019-03-12T13:37:48.904Z,91.60
2019-03-12T13:40:23.320Z,90.40
2019-03-12T13:42:52.088Z,91.00
2019-03-12T13:45:31.411Z,90.50
2019-03-12T13:48:00.044Z,91.30
2019-03-12T13:50:28.730Z,89.70
2019-03-12T13:52:57.236Z,91.30
2019-03-12T13:55:26.252Z,91.40
2019-03-12T13:57:54.795Z,91.20
2019-03-12T14:00:24.410Z,91.50
2019-03-12T14:02:53.086Z,90.60
2019-03-12T14:05:22.006Z,91.40
2019-03-12T14:07:50.423Z,91.60
2019-03-12T14:10:24.247Z,92.30
2019-03-12T14:12:53.882Z,91.70
2019-03-12T14:15:27.844Z,90.90
2019-03-12T14:17:56.642Z,90.70
2019-03-12T14:20:44.493Z,89.70
2019-03-12T14:23:27.950Z,90.90
2019-03-12T14:25:56.859Z,91.40
2019-03-12T14:28:25.478Z,85.70
2019-03-12T14:30:54.026Z,90.40
2019-03-12T14:33:22.612Z,89.90
2019-03-12T14:35:52.288Z,91.00
2019-03-12T14:38:21.217Z,91.00
2019-03-12T14:40:50.271Z,90.10
2019-03-12T14:43:18.805Z,90.00
2019-03-12T14:45:51.677Z,89.10
2019-03-12T14:48:40.666Z,87.40
2019-03-12T14:51:30.772Z,89.30
2019-03-12T14:54:08.052Z,86.30
2019-03-12T14:56:36.613Z,87.80
2019-03-12T14:59:05.288Z,85.10
2019-03-12T15:01:34.070Z,87.50
2019-03-12T15:04:02.644Z,87.50
2019-03-12T15:06:31.321Z,87.70
2019-03-12T15:08:59.915Z,87.70
2019-03-12T15:11:28.594Z,85.00
2019-03-12T15:13:57.090Z,86.70
2019-03-12T15:16:25.783Z,80.90
2019-03-12T15:18:54.294Z,82.70
2019-03-12T15:21:22.769Z,81.90
2019-03-12T15:23:51.238Z,81.60
2019-03-12T15:26:19.720Z,77.60
2019-03-12T15:28:48.249Z,78.40
2019-03-12T15:31:16.830Z,78.70
2019-03-12T15:33:45.556Z,75.80
2019-03-12T15:36:14.000Z,79.30
2019-03-12T15:38:42.440Z,76.20
2019-03-12T15:41:10.903Z,77.20
2019-03-12T15:43:39.349Z,79.20
2019-03-12T15:46:07.856Z,79.60
2019-03-12T15:48:36.536Z,78.00
2019-03-12T15:51:05.059Z,78.20
2019-03-12T15:53:33.496Z,79.60
2019-03-12T15:56:01.963Z,79.40
2019-03-12T15:58:30.397Z,77.20
2019-03-12T16:00:58.849Z,78.40
2019-03-12T16:03:27.360Z,78.70
2019-03-12T16:05:55.812Z,78.80
2019-03-12T16:08:24.308Z,80.30
2019-03-12T16:10:57.971Z,80.50
2019-03-12T16:13:22.915Z,79.50
2019-03-12T16:15:51.370Z,79.90
2019-03-12T16:18:19.816Z,79.70
2019-03-12T16:20:48.418Z,82.80
2019-03-12T16:23:16.849Z,78.60
2019-03-12T16:25:45.300Z,79.00
2019-03-12T16:28:13.823Z,79.80
2019-03-12T16:30:42.255Z,80.90
2019-03-12T16:33:10.891Z,80.70
2019-03-12T16:35:39.411Z,80.20
2019-03-12T16:38:07.857Z,80.50
2019-03-12T16:40:36.335Z,78.90
2019-03-12T16:43:04.844Z,80.50
2019-03-12T16:45:33.278Z,81.30
2019-03-12T16:48:01.781Z,79.10
2019-03-12T16:50:30.241Z,78.20
2019-03-12T16:52:58.721Z,77.20
2019-03-12T16:55:27.148Z,79.70
2019-03-12T16:57:55.978Z,79.20
2019-03-12T17:00:24.636Z,81.00
2019-03-12T17:02:53.081Z,80.40
2019-03-12T17:05:21.588Z,80.50
2019-03-12T17:07:50.029Z,80.50
2019-03-12T17:10:21.814Z,81.60
2019-03-12T17:12:50.292Z,81.70
2019-03-12T17:15:20.775Z,82.00
2019-03-12T17:17:49.250Z,81.10
2019-03-12T17:20:17.910Z,82.70
2019-03-12T17:22:46.504Z,81.30
2019-03-12T17:25:15.006Z,81.80
2019-03-12T17:27:43.720Z,80.10
2019-03-12T17:30:18.085Z,81.00
2019-03-12T17:32:46.535Z,81.30
2019-03-12T17:35:29.744Z,80.90
2019-03-12T17:37:58.204Z,81.70
2019-03-12T17:40:26.649Z,80.50
2019-03-12T17:42:55.276Z,82.50
2019-03-12T17:45:23.792Z,82.20
2019-03-12T17:47:52.315Z,82.90
2019-03-12T17:50:20.764Z,81.40
2019-03-12T17:52:49.265Z,82.40
2019-03-12T17:55:17.712Z,82.20
2019-03-12T17:57:46.213Z,82.80
2019-03-12T18:00:20.308Z,81.50
2019-03-12T18:02:48.748Z,81.70
2019-03-12T18:05:17.314Z,83.80
2019-03-12T18:07:45.806Z,84.80
2019-03-12T18:10:15.608Z,83.90
2019-03-12T18:12:44.584Z,84.60
2019-03-12T18:15:19.032Z,82.20
2019-03-12T18:17:46.391Z,84.50
2019-03-12T18:20:21.101Z,82.80
2019-03-12T18:22:49.608Z,84.20
2019-03-12T18:25:27.128Z,84.00
2019-03-12T18:27:55.643Z,85.60
2019-03-12T18:30:24.127Z,84.00
2019-03-12T18:32:52.642Z,84.10
2019-03-12T18:35:21.092Z,85.50
2019-03-12T18:37:49.606Z,88.00
2019-03-12T18:40:22.970Z,88.80
2019-03-12T18:42:51.568Z,86.80
2019-03-12T18:45:25.435Z,86.30
2019-03-12T18:47:53.897Z,85.80
2019-03-12T18:50:22.496Z,88.70
2019-03-12T18:52:51.112Z,88.80
2019-03-12T18:55:31.632Z,88.80
2019-03-12T18:58:00.602Z,88.40
2019-03-12T19:00:29.260Z,87.70
2019-03-12T19:02:57.937Z,87.70
2019-03-12T19:05:28.204Z,89.90
2019-03-12T19:07:56.680Z,89.60
2019-03-12T19:10:25.179Z,87.20
2019-03-12T19:12:53.710Z,88.00
2019-03-12T19:15:22.153Z,88.10
2019-03-12T19:17:50.595Z,87.20
2019-03-12T19:20:19.936Z,88.30
2019-03-12T19:22:48.493Z,88.00
2019-03-12T19:25:25.203Z,87.80
2019-03-12T19:27:59.798Z,87.00
2019-03-12T19:30:23.797Z,86.90
2019-03-12T19:33:02.754Z,87.60
2019-03-12T19:35:32.101Z,88.60
2019-03-12T19:38:01.882Z,87.30
2019-03-12T19:40:48.796Z,88.50
2019-03-12T19:43:17.543Z,88.30
2019-03-12T19:45:46.012Z,89.70
2019-03-12T19:48:14.511Z,88.30
2019-03-12T19:50:43.040Z,88.40
2019-03-12T19:53:11.512Z,88.90
2019-03-12T19:55:42.507Z,89.00
2019-03-12T19:58:11.057Z,87.70
2019-03-12T20:00:39.979Z,88.80
2019-03-12T20:03:11.966Z,87.60
2019-03-12T20:05:38.777Z,89.60
2019-03-12T20:08:07.577Z,87.80
2019-03-12T20:11:10.823Z,89.60
2019-03-12T20:14:04.790Z,88.30
2019-03-12T20:17:08.988Z,88.00
2019-03-12T20:20:03.092Z,88.70
2019-03-12T20:22:53.856Z,88.10
2019-03-12T20:25:59.995Z,87.60
2019-03-12T20:28:59.859Z,88.00
2019-03-12T20:32:06.106Z,88.40
2019-03-12T20:34:55.205Z,87.40
2019-03-12T20:37:43.167Z,88.20
2019-03-12T20:40:17.410Z,88.20
2019-03-12T20:43:23.680Z,88.00
2019-03-12T20:46:00.908Z,88.10
2019-03-12T20:48:51.989Z,87.80
2019-03-12T20:51:35.767Z,87.90
2019-03-12T20:54:33.149Z,88.70
2019-03-12T20:57:38.083Z,89.00
2019-03-12T21:00:12.603Z,87.70
2019-03-12T21:03:13.129Z,87.50
2019-03-12T21:06:19.191Z,89.50
2019-03-12T21:09:05.525Z,89.70
2019-03-12T21:12:12.633Z,90.00
2019-03-12T21:15:19.732Z,88.60
2019-03-12T21:18:26.827Z,88.90
2019-03-12T21:21:33.929Z,88.70
2019-03-12T21:24:42.439Z,88.70
2019-03-12T21:27:49.517Z,88.70
2019-03-12T21:30:37.554Z,89.50
2019-03-12T21:33:25.315Z,88.30
2019-03-12T21:35:53.743Z,87.70
2019-03-12T21:38:41.532Z,88.50
2019-03-12T21:41:29.310Z,89.20
2019-03-12T21:44:17.156Z,89.20
2019-03-12T21:47:05.088Z,87.10
2019-03-12T21:49:52.870Z,88.10
2019-03-12T21:52:40.627Z,88.80
2019-03-12T21:55:37.749Z,89.70
2019-03-12T21:58:25.600Z,89.70
2019-03-12T22:01:13.465Z,89.00
2019-03-12T22:03:41.967Z,88.60
2019-03-12T22:06:10.478Z,89.50
2019-03-12T22:08:38.909Z,86.80
2019-03-12T22:11:07.419Z,87.70
2019-03-12T22:13:35.863Z,88.40
2019-03-12T22:16:04.424Z,88.10
2019-03-12T22:18:32.865Z,87.80
2019-03-12T22:21:01.309Z,89.40
2019-03-12T22:23:31.376Z,89.50
2019-03-12T22:25:59.812Z,88.30
2019-03-12T22:28:28.258Z,88.10
2019-03-12T22:30:56.681Z,89.50
2019-03-12T22:33:25.111Z,89.30
2019-03-12T22:35:53.544Z,90.10
2019-03-12T22:38:22.147Z,90.30
2019-03-12T22:40:50.576Z,92.10
2019-03-12T22:43:19.086Z,91.80
2019-03-12T22:45:47.587Z,92.70
2019-03-12T22:48:16.032Z,93.20
2019-03-12T22:50:44.898Z,94.70
2019-03-12T22:53:13.347Z,95.60
2019-03-12T22:55:41.862Z,97.10
2019-03-12T22:58:10.744Z,98.70
2019-03-12T23:00:40.533Z,99.90
2019-03-12T23:03:09.053Z,99.90
2019-03-12T23:05:37.660Z,99.90
2019-03-12T23:08:06.322Z,99.90
2019-03-12T23:10:35.122Z,99.90
2019-03-12T23:13:03.877Z,99.90
2019-03-12T23:15:32.709Z,99.90
2019-03-12T23:18:01.143Z,99.90
2019-03-12T23:20:29.991Z,99.90
2019-03-12T23:22:58.505Z,99.90
2019-03-12T23:25:26.973Z,99.90
2019-03-12T23:27:55.804Z,99.90
2019-03-12T23:30:28.183Z,99.90
2019-03-12T23:32:55.357Z,99.90
2019-03-12T23:35:23.951Z,99.90
2019-03-12T23:37:52.465Z,99.90
2019-03-12T23:40:21.201Z,99.90
2019-03-12T23:42:49.775Z,99.90
2019-03-12T23:45:18.768Z,99.90
2019-03-12T23:47:50.110Z,99.90
2019-03-12T23:50:18.506Z,99.90
2019-03-12T23:52:47.380Z,99.90
2019-03-12T23:55:17.964Z,99.90
2019-03-12T23:57:47.088Z,99.90
